Time;durP1;ratioP1;P1;durP2;ratioP2;P2;SDS_P1;SDS_P2;PMS_P1;PMS_P2;Temp;Humidity;BMP_temperature;BMP_pressure;BME280_temperature;BME280_humidity;BME280_pressure;Samples;Min_cycle;Max_cycle;Signal;HPM_P1;HPM_P2
2022/03/27 00:01:21;;;;;;;11.00;7.73;;;;;;;9.62;44.07;97476.38;5078283;28;20927;-40
2022/03/27 00:03:48;;;;;;;12.70;7.50;;;;;;;9.63;44.32;97483.28;5072980;28;20462;-38
2022/03/27 00:06:15;;;;;;;13.73;8.23;;;;;;;9.62;44.23;97473.72;5072866;28;20444;-37
2022/03/27 00:08:42;;;;;;;11.30;6.83;;;;;;;9.62;44.26;97481.66;5072803;28;20455;-39
2022/03/27 00:11:27;;;;;;;12.23;6.73;;;;;;;9.60;44.05;97484.53;5072968;28;20452;-39
2022/03/27 00:13:57;;;;;;;15.73;7.27;;;;;;;9.60;44.07;97475.75;5072809;28;20460;-39
2022/03/27 00:16:24;;;;;;;12.90;6.53;;;;;;;9.58;44.02;97465.34;5076473;28;20634;-37
2022/03/27 00:18:51;;;;;;;16.90;7.90;;;;;;;9.56;43.95;97463.94;5073628;28;20990;-38
2022/03/27 00:21:20;;;;;;;22.10;7.60;;;;;;;9.53;44.19;97467.00;5075058;28;20493;-36
2022/03/27 00:23:48;;;;;;;14.20;8.37;;;;;;;9.51;44.37;97463.78;5072530;28;20808;-37
2022/03/27 00:26:17;;;;;;;11.97;8.50;;;;;;;9.50;44.72;97462.16;5072177;28;20482;-39
2022/03/27 00:28:45;;;;;;;18.93;10.50;;;;;;;9.51;44.29;97461.13;5072296;28;20444;-38
2022/03/27 00:31:13;;;;;;;17.77;9.70;;;;;;;9.50;44.79;97462.97;5072126;28;20444;-37
2022/03/27 00:33:43;;;;;;;7.83;6.10;;;;;;;9.48;44.56;97477.44;5072610;28;20844;-38
2022/03/27 00:36:13;;;;;;;10.00;6.23;;;;;;;9.44;44.58;97450.53;5072199;28;20443;-37
2022/03/27 00:38:41;;;;;;;13.97;5.73;;;;;;;9.38;44.73;97454.06;5072180;28;20476;-39
2022/03/27 00:41:08;;;;;;;12.43;7.43;;;;;;;9.32;44.90;97444.31;5072294;28;20439;-38
2022/03/27 00:43:37;;;;;;;8.60;6.03;;;;;;;9.31;44.88;97448.78;5071939;28;20519;-37
2022/03/27 00:46:05;;;;;;;10.23;6.10;;;;;;;9.30;44.99;97444.53;5072332;28;20452;-39
2022/03/27 00:48:32;;;;;;;12.57;6.30;;;;;;;9.29;45.03;97450.88;5072057;28;20447;-39
2022/03/27 00:50:59;;;;;;;12.80;7.20;;;;;;;9.30;45.07;97452.47;5072382;28;20501;-40
2022/03/27 00:53:26;;;;;;;14.17;7.07;;;;;;;9.28;45.47;97445.75;5072060;28;20781;-38
2022/03/27 00:55:53;;;;;;;15.93;7.60;;;;;;;9.24;45.36;97440.06;5072168;28;20464;-39
2022/03/27 00:58:21;;;;;;;12.03;6.80;;;;;;;9.22;45.40;97444.75;5083550;28;20521;-38
2022/03/27 01:00:57;;;;;;;17.80;8.10;;;;;;;9.20;45.59;97431.72;5080507;28;20526;-39
2022/03/27 01:03:26;;;;;;;15.10;7.10;;;;;;;9.22;45.58;97447.41;5071715;28;20496;-38
2022/03/27 01:05:57;;;;;;;13.67;7.40;;;;;;;9.13;45.71;97441.53;5071713;28;20915;-38
2022/03/27 01:11:13;;;;;;;12.00;6.87;;;;;;;9.12;45.81;97444.41;5059944;28;20431;-38
2022/03/27 01:13:45;;;;;;;15.90;6.10;;;;;;;9.09;45.87;97442.19;5094435;28;20423;-38
2022/03/27 01:16:30;;;;;;;13.50;5.93;;;;;;;9.08;45.75;97441.38;5093754;28;20447;-39
2022/03/27 01:18:58;;;;;;;11.40;6.03;;;;;;;9.08;45.84;97438.72;5093450;28;20478;-39
2022/03/27 01:21:27;;;;;;;20.43;6.87;;;;;;;9.06;46.04;97439.97;5093401;28;20922;-38
2022/03/27 01:23:56;;;;;;;17.47;6.60;;;;;;;8.87;46.30;97421.28;5093655;28;20454;-38
2022/03/27 01:26:23;;;;;;;13.30;6.20;;;;;;;9.05;45.96;97443.63;5093745;28;20470;-38
2022/03/27 01:28:51;;;;;;;14.40;7.70;;;;;;;9.08;46.35;97432.59;5093277;28;20452;-37
2022/03/27 01:31:18;;;;;;;14.30;6.37;;;;;;;9.08;46.29;97437.88;5093630;28;20467;-38
2022/03/27 01:33:46;;;;;;;9.87;6.00;;;;;;;9.08;46.08;97428.13;5093338;28;20446;-38
2022/03/27 01:36:22;;;;;;;13.57;6.13;;;;;;;9.08;46.40;97428.13;5093204;28;20447;-38
2022/03/27 01:38:52;;;;;;;12.67;6.13;;;;;;;9.10;46.32;97430.53;5093168;28;20475;-38
2022/03/27 01:41:19;;;;;;;13.20;5.40;;;;;;;9.12;46.54;97428.50;5093991;28;20435;-37
2022/03/27 01:43:47;;;;;;;14.50;5.47;;;;;;;9.13;46.93;97435.44;5093191;28;20521;-38
2022/03/27 01:46:14;;;;;;;13.40;5.80;;;;;;;9.14;46.78;97435.25;5093171;28;20801;-39
2022/03/27 01:48:41;;;;;;;11.33;6.10;;;;;;;9.15;46.71;97438.69;5093085;28;20796;-38
2022/03/27 01:51:09;;;;;;;10.50;6.27;;;;;;;9.17;46.56;97434.00;5093113;28;20438;-38
2022/03/27 01:53:40;;;;;;;10.00;5.83;;;;;;;9.16;46.44;97429.72;5093095;28;20516;-38
2022/03/27 01:56:10;;;;;;;16.00;6.10;;;;;;;9.15;46.38;97433.41;5093207;28;20428;-38
2022/03/27 01:58:42;;;;;;;8.80;5.17;;;;;;;9.15;46.62;97422.81;5093020;28;21032;-37
2022/03/27 02:01:10;;;;;;;10.23;6.27;;;;;;;9.15;46.59;97426.25;5110622;28;20449;-38
2022/03/27 02:03:37;;;;;;;9.77;5.67;;;;;;;9.15;46.76;97422.81;5099765;28;20810;-37
2022/03/27 02:06:05;;;;;;;10.97;5.13;;;;;;;9.12;46.81;97425.84;5093254;28;20534;-38
2022/03/27 02:08:33;;;;;;;30.03;7.53;;;;;;;9.07;47.22;97428.34;5092938;28;20535;-38
2022/03/27 02:11:00;;;;;;;12.53;6.73;;;;;;;9.01;46.92;97422.88;5092969;28;20443;-38
2022/03/27 02:13:30;;;;;;;12.13;6.40;;;;;;;9.01;47.45;97428.16;5092969;28;20454;-38
2022/03/27 02:15:58;;;;;;;8.73;4.87;;;;;;;8.98;47.05;97415.31;5092877;28;20450;-38
2022/03/27 02:18:26;;;;;;;9.63;5.43;;;;;;;8.87;47.13;97399.28;5092905;28;20857;-38
2022/03/27 02:20:54;;;;;;;8.90;5.37;;;;;;;8.99;47.18;97408.19;5092815;28;20451;-39
2022/03/27 02:23:22;;;;;;;13.00;6.07;;;;;;;8.95;46.86;97402.53;5096229;28;20462;-39
2022/03/27 02:25:49;;;;;;;13.40;6.30;;;;;;;8.97;46.79;97411.06;5096408;28;20965;-38
2022/03/27 02:28:17;;;;;;;11.37;5.80;;;;;;;8.95;46.96;97413.09;5096510;28;20474;-38
2022/03/27 02:30:45;;;;;;;8.07;5.00;;;;;;;8.80;46.98;97389.53;5096430;28;20779;-38
2022/03/27 02:33:13;;;;;;;12.37;5.87;;;;;;;8.93;46.91;97404.56;5096711;28;20445;-38
2022/03/27 02:35:40;;;;;;;11.57;7.07;;;;;;;8.95;47.03;97402.53;5096638;28;20481;-38
2022/03/27 02:38:08;;;;;;;17.40;5.70;;;;;;;8.91;46.86;97403.97;5096180;28;21064;-38
2022/03/27 02:40:36;;;;;;;10.70;6.33;;;;;;;8.96;46.59;97413.91;5096245;28;20443;-39
2022/03/27 02:43:05;;;;;;;11.13;5.90;;;;;;;8.97;46.51;97412.88;5097321;28;20450;-38
2022/03/27 02:45:33;;;;;;;9.80;5.17;;;;;;;8.97;46.74;97420.81;5096063;28;20439;-38
2022/03/27 02:48:02;;;;;;;8.03;5.93;;;;;;;8.96;46.74;97420.00;5096114;28;20443;-38
2022/03/27 02:50:30;;;;;;;7.40;5.30;;;;;;;8.94;46.70;97427.34;5096060;28;20443;-38
2022/03/27 02:52:58;;;;;;;9.83;5.50;;;;;;;8.91;47.01;97422.50;5096259;28;20521;-38
2022/03/27 02:55:25;;;;;;;9.50;5.10;;;;;;;8.89;46.66;97408.66;5095872;28;20780;-38
2022/03/27 02:57:53;;;;;;;9.57;6.03;;;;;;;8.91;46.81;97417.19;5095798;28;20474;-38
2022/03/27 03:00:22;;;;;;;11.33;6.57;;;;;;;8.93;47.03;97423.09;5095584;28;20442;-40
2022/03/27 03:02:50;;;;;;;15.00;5.87;;;;;;;8.90;47.35;97428.78;5095218;28;20438;-36
2022/03/27 03:05:19;;;;;;;9.47;5.93;;;;;;;8.88;47.33;97417.59;5095809;28;20525;-38
2022/03/27 03:07:47;;;;;;;11.70;5.70;;;;;;;8.89;46.88;97427.19;5095703;28;20482;-38
2022/03/27 03:10:15;;;;;;;8.83;6.37;;;;;;;8.91;46.94;97427.78;5095677;28;20445;-39
2022/03/27 03:12:43;;;;;;;13.23;7.60;;;;;;;8.88;47.04;97422.09;5095641;28;20447;-37
2022/03/27 03:15:11;;;;;;;9.97;7.20;;;;;;;8.89;47.02;97431.69;5095897;28;20443;-38
2022/03/27 03:17:39;;;;;;;14.37;8.10;;;;;;;8.87;47.16;97421.28;5095795;28;20447;-38
2022/03/27 03:20:08;;;;;;;12.70;6.77;;;;;;;8.87;46.86;97431.06;5095692;28;20490;-38
2022/03/27 03:22:40;;;;;;;13.57;6.90;;;;;;;8.82;47.32;97437.00;5095950;28;20446;-38
2022/03/27 03:25:09;;;;;;;11.17;5.60;;;;;;;8.71;47.42;97422.56;5095214;28;20474;-38
2022/03/27 03:27:36;;;;;;;15.63;5.87;;;;;;;8.82;47.14;97435.16;5095478;28;20942;-38
2022/03/27 03:30:05;;;;;;;9.73;6.07;;;;;;;8.81;47.14;97433.53;5095655;28;20439;-38
2022/03/27 03:32:34;;;;;;;14.27;7.17;;;;;;;8.80;47.29;97447.00;5095343;28;20466;-39
2022/03/27 03:35:02;;;;;;;14.67;5.93;;;;;;;8.78;47.23;97433.16;5095304;28;20456;-38
2022/03/27 03:37:29;;;;;;;22.53;6.63;;;;;;;8.79;47.53;97432.09;5095277;28;20439;-38
2022/03/27 03:39:58;;;;;;;10.63;6.57;;;;;;;8.79;47.42;97440.06;5095159;28;20494;-38
2022/03/27 03:42:25;;;;;;;13.67;8.00;;;;;;;8.78;47.38;97433.16;5095174;28;20484;-38
2022/03/27 03:44:53;;;;;;;16.40;7.80;;;;;;;8.78;47.02;97446.38;5095404;28;20797;-38
2022/03/27 03:47:20;;;;;;;13.53;7.00;;;;;;;8.76;47.28;97440.47;5094963;28;20534;-38
2022/03/27 03:49:47;;;;;;;16.57;8.10;;;;;;;8.77;47.23;97442.09;5095362;28;20496;-38
2022/03/27 03:52:15;;;;;;;16.60;8.03;;;;;;;8.78;47.07;97443.72;5095321;28;20443;-39
2022/03/27 03:54:42;;;;;;;13.37;8.37;;;;;;;8.79;47.28;97448.00;5094887;28;20453;-38
2022/03/27 03:57:11;;;;;;;13.37;7.03;;;;;;;8.80;47.19;97449.63;5095627;28;20443;-38
2022/03/27 03:59:39;;;;;;;19.60;8.90;;;;;;;8.79;47.17;97454.09;5095087;28;20509;-38
2022/03/27 04:02:07;;;;;;;26.07;11.37;;;;;;;8.80;46.92;97455.75;5094700;28;20446;-38
2022/03/27 04:04:36;;;;;;;34.63;14.10;;;;;;;8.83;46.80;97459.78;5094674;28;20447;-39
2022/03/27 04:07:05;;;;;;;27.50;14.07;;;;;;;8.83;46.92;97457.16;5095012;28;20454;-38
2022/03/27 04:09:33;;;;;;;24.60;10.47;;;;;;;8.84;47.08;97453.50;5094550;28;20517;-38
2022/03/27 04:12:01;;;;;;;37.37;17.47;;;;;;;8.81;47.10;97462.66;5094478;28;20438;-39
2022/03/27 04:14:34;;;;;;;29.43;15.00;;;;;;;8.80;46.81;97461.03;5094378;28;20492;-38
2022/03/27 04:17:01;;;;;;;13.90;7.80;;;;;;;8.78;47.05;97465.72;5094685;28;20525;-37
2022/03/27 04:19:28;;;;;;;21.03;10.90;;;;;;;8.79;46.88;97464.69;5094294;28;20491;-38
2022/03/27 04:21:59;;;;;;;17.50;11.53;;;;;;;8.82;47.05;97471.44;5094250;28;20435;-38
2022/03/27 04:24:26;;;;;;;18.47;12.93;;;;;;;8.84;47.08;97469.38;5094065;28;20973;-37
2022/03/27 04:26:53;;;;;;;25.80;14.03;;;;;;;8.85;47.40;97465.69;5094398;28;20431;-37
2022/03/27 04:29:21;;;;;;;21.00;12.33;;;;;;;8.87;47.48;97474.25;5094504;28;20466;-38
2022/03/27 04:31:49;;;;;;;20.07;11.77;;;;;;;8.90;47.26;97473.81;5094069;28;20447;-39
2022/03/27 04:34:17;;;;;;;25.97;12.10;;;;;;;8.92;47.14;97477.06;5094115;28;20496;-37
2022/03/27 04:36:44;;;;;;;18.07;12.37;;;;;;;8.98;47.31;97481.53;5094001;28;20969;-37
2022/03/27 04:39:11;;;;;;;19.10;10.70;;;;;;;9.20;47.07;97478.59;5093842;28;20487;-38
2022/03/27 04:41:39;;;;;;;16.37;9.67;;;;;;;9.51;46.93;97471.75;5093923;28;20446;-39
2022/03/27 04:44:08;;;;;;;20.40;11.57;;;;;;;9.84;46.26;97479.47;5093822;28;20439;-38
2022/03/27 04:46:35;;;;;;;21.90;12.33;;;;;;;10.24;45.78;97480.00;5093936;28;20447;-39
2022/03/27 04:49:04;;;;;;;16.93;10.90;;;;;;;10.63;44.53;97493.97;5093714;28;20443;-38
2022/03/27 04:51:32;;;;;;;20.73;11.73;;;;;;;10.88;43.76;97479.81;5094052;28;20447;-39
2022/03/27 04:53:59;;;;;;;35.13;15.50;;;;;;;11.29;43.19;97491.59;5093786;28;20443;-38
2022/03/27 04:56:26;;;;;;;33.43;12.97;;;;;;;11.76;42.63;97485.66;5093699;28;20439;-38
2022/03/27 04:58:54;;;;;;;25.40;14.70;;;;;;;12.20;41.94;97480.94;5094008;28;20482;-39
2022/03/27 05:01:21;;;;;;;20.43;10.17;;;;;;;12.55;41.03;97483.63;5093619;28;20550;-39
2022/03/27 05:03:48;;;;;;;21.80;9.97;;;;;;;12.87;40.29;97480.59;5093513;28;20443;-37
2022/03/27 05:06:18;;;;;;;22.77;9.30;;;;;;;13.26;39.64;97489.66;5092892;28;20468;-39
2022/03/27 05:08:45;;;;;;;19.50;9.20;;;;;;;13.66;39.10;97493.38;5092833;28;20450;-40
2022/03/27 05:11:13;;;;;;;17.23;7.87;;;;;;;14.06;38.16;97495.94;5089712;28;20539;-41
2022/03/27 05:13:40;;;;;;;18.87;7.23;;;;;;;14.39;37.49;97507.72;5076201;28;20440;-40
2022/03/27 05:16:07;;;;;;;10.30;6.27;;;;;;;14.64;36.97;97509.16;5073644;28;20456;-41
2022/03/27 05:18:35;;;;;;;7.60;6.30;;;;;;;14.99;36.86;97519.53;5072925;28;20915;-39
2022/03/27 05:21:02;;;;;;;16.23;8.00;;;;;;;15.25;36.23;97503.84;5071588;28;20447;-40
2022/03/27 05:23:31;;;;;;;11.70;7.27;;;;;;;15.50;35.78;97511.38;5071570;28;20955;-38
2022/03/27 05:25:58;;;;;;;15.97;9.50;;;;;;;15.67;35.60;97513.97;5071502;28;20554;-39
2022/03/27 05:28:25;;;;;;;16.67;11.60;;;;;;;15.81;36.16;97515.22;5072096;28;20452;-38
2022/03/27 05:30:56;;;;;;;14.50;8.30;;;;;;;15.93;35.60;97507.03;5073020;28;20455;-40
2022/03/27 05:33:23;;;;;;;10.77;6.73;;;;;;;15.95;35.28;97512.94;5073054;28;20439;-39
2022/03/27 05:35:51;;;;;;;14.20;7.70;;;;;;;16.01;35.32;97516.47;5074846;28;20451;-39
2022/03/27 05:38:18;;;;;;;18.03;9.10;;;;;;;16.07;35.00;97507.44;5089724;28;20514;-40
2022/03/27 05:40:47;;;;;;;13.33;7.70;;;;;;;16.18;35.01;97517.97;5093410;28;20482;-37
2022/03/27 05:43:14;;;;;;;11.93;7.30;;;;;;;16.53;34.63;97513.16;5092823;28;20439;-39
2022/03/27 05:45:41;;;;;;;13.70;7.47;;;;;;;16.81;33.87;97519.28;5093577;28;20450;-39
2022/03/27 05:48:09;;;;;;;14.50;7.63;;;;;;;17.06;33.09;97519.44;5093402;28;20439;-39
2022/03/27 05:50:39;;;;;;;20.30;10.60;;;;;;;17.37;33.86;97531.09;5093078;28;20443;-39
2022/03/27 05:53:07;;;;;;;15.07;7.60;;;;;;;17.65;32.46;97529.06;5093086;28;20446;-39
2022/03/27 05:55:34;;;;;;;14.80;9.50;;;;;;;17.84;32.79;97534.78;5093115;28;20449;-40
2022/03/27 05:58:03;;;;;;;22.47;12.73;;;;;;;17.92;32.29;97518.16;5095716;28;20496;-40
2022/03/27 06:00:30;;;;;;;46.43;26.30;;;;;;;17.82;31.62;97528.88;5096875;28;21004;-41
2022/03/27 06:02:57;;;;;;;187.20;103.00;;;;;;;17.96;32.28;97527.31;5096976;28;20439;-40
2022/03/27 06:05:25;;;;;;;287.57;118.50;;;;;;;18.19;31.83;97522.47;5097261;28;20793;-39
2022/03/27 06:07:54;;;;;;;82.20;37.40;;;;;;;18.20;30.46;97524.91;5097205;28;20438;-39
2022/03/27 06:10:23;;;;;;;32.23;17.40;;;;;;;18.53;31.33;97527.34;5097093;28;20477;-40
2022/03/27 06:12:50;;;;;;;66.83;34.20;;;;;;;18.59;30.98;97504.75;5097087;28;20470;-40
2022/03/27 06:15:21;;;;;;;26.27;13.27;;;;;;;18.84;29.94;97536.19;5096842;28;20929;-39
2022/03/27 06:17:49;;;;;;;27.07;13.10;;;;;;;18.98;29.97;97528.38;5096666;28;20457;-40
2022/03/27 06:20:19;;;;;;;12.00;6.87;;;;;;;19.16;28.87;97529.69;5096540;28;20494;-39
2022/03/27 06:22:47;;;;;;;11.50;7.70;;;;;;;19.07;28.88;97515.97;5095350;28;20520;-40
2022/03/27 06:25:16;;;;;;;15.27;8.70;;;;;;;19.16;28.01;97524.28;5096477;28;20485;-38
2022/03/27 06:27:44;;;;;;;12.83;7.10;;;;;;;19.37;28.31;97530.41;5096761;28;20443;-40
2022/03/27 06:30:13;;;;;;;12.80;7.97;;;;;;;19.31;28.22;97528.81;5097357;28;20443;-39
2022/03/27 06:32:42;;;;;;;11.67;6.90;;;;;;;19.08;28.27;97520.31;5096368;28;20443;-39
2022/03/27 06:35:11;;;;;;;9.60;5.60;;;;;;;19.39;27.93;97539.03;5096376;28;20922;-38
2022/03/27 06:37:39;;;;;;;22.60;7.87;;;;;;;19.49;26.73;97527.41;5096389;28;20439;-39
2022/03/27 06:40:08;;;;;;;11.87;7.77;;;;;;;19.78;26.55;97535.66;5096513;28;20557;-38
2022/03/27 06:42:36;;;;;;;24.93;8.67;;;;;;;19.81;26.05;97538.59;5096326;28;20839;-39
2022/03/27 06:45:04;;;;;;;10.67;6.80;;;;;;;19.90;25.83;97529.94;5096456;28;20439;-39
2022/03/27 06:47:32;;;;;;;12.23;6.73;;;;;;;20.15;26.11;97534.34;5096437;28;20540;-38
2022/03/27 06:50:02;;;;;;;11.90;7.50;;;;;;;20.07;25.37;97537.63;5095747;28;20504;-39
2022/03/27 06:52:30;;;;;;;11.83;6.43;;;;;;;20.04;24.98;97531.72;5102366;28;20516;-38
2022/03/27 06:54:58;;;;;;;13.50;6.90;;;;;;;20.04;25.05;97533.63;5111909;28;20484;-41
2022/03/27 06:57:26;;;;;;;15.07;7.10;;;;;;;20.16;24.85;97536.78;5101221;28;20438;-39
2022/03/27 07:05:24;;;;;;;15.07;8.70;;;;;;;20.30;24.74;97536.13;5094527;28;20430;-39
2022/03/27 07:07:52;;;;;;;14.63;7.67;;;;;;;20.23;24.91;97541.84;5099506;28;20449;-39
2022/03/27 07:10:19;;;;;;;12.57;7.23;;;;;;;20.28;24.37;97528.31;5095159;28;20550;-39
2022/03/27 07:12:48;;;;;;;10.03;6.90;;;;;;;20.50;24.60;97540.56;5095167;28;20490;-39
2022/03/27 07:15:15;;;;;;;15.60;7.57;;;;;;;20.59;24.23;97544.31;5097252;28;20442;-36
2022/03/27 07:17:46;;;;;;;18.17;8.80;;;;;;;20.51;24.44;97542.19;5096221;28;20495;-37
2022/03/27 07:20:17;;;;;;;18.53;8.87;;;;;;;20.43;24.03;97554.38;5095068;28;20571;-38
2022/03/27 07:22:47;;;;;;;15.73;8.90;;;;;;;20.54;23.81;97544.31;5095463;28;20466;-36
2022/03/27 07:25:14;;;;;;;17.50;7.80;;;;;;;20.46;24.09;97549.22;5095081;28;20981;-37
2022/03/27 07:27:42;;;;;;;15.10;7.53;;;;;;;20.41;23.78;97533.09;5094900;28;20446;-39
2022/03/27 07:30:10;;;;;;;17.03;8.23;;;;;;;20.53;24.68;97529.22;5095319;28;20443;-38
2022/03/27 07:32:39;;;;;;;12.37;7.83;;;;;;;20.61;24.29;97531.34;5095024;28;20504;-39
2022/03/27 07:35:07;;;;;;;25.03;8.73;;;;;;;20.83;24.82;97533.56;5094120;28;20847;-38
2022/03/27 07:37:35;;;;;;;13.97;8.17;;;;;;;21.04;23.43;97534.16;5095333;28;20447;-39
2022/03/27 07:40:08;;;;;;;23.17;9.83;;;;;;;21.17;23.69;97530.00;5094370;28;20489;-37
2022/03/27 07:42:36;;;;;;;18.40;9.83;;;;;;;20.70;23.75;97528.84;5095103;28;20423;-39
2022/03/27 07:45:05;;;;;;;19.27;9.87;;;;;;;20.50;23.59;97513.59;5094631;28;20446;-38
2022/03/27 07:47:32;;;;;;;14.90;9.20;;;;;;;20.77;23.71;97540.09;5094947;28;20479;-39
2022/03/27 07:50:00;;;;;;;21.27;10.40;;;;;;;20.92;24.07;97548.03;5094947;28;20453;-36
2022/03/27 07:52:28;;;;;;;18.90;10.00;;;;;;;20.80;23.25;97540.34;5094895;28;21025;-37
2022/03/27 07:54:55;;;;;;;18.57;10.37;;;;;;;20.74;23.65;97536.06;5094361;28;20471;-39
2022/03/27 07:57:26;;;;;;;23.80;11.47;;;;;;;20.77;22.67;97532.78;5094071;28;20531;-40
2022/03/27 07:59:53;;;;;;;18.17;11.73;;;;;;;20.98;24.08;97532.63;5094061;28;20981;-38
2022/03/27 08:02:21;;;;;;;36.10;13.73;;;;;;;21.18;23.62;97550.47;5092252;28;20475;-39
2022/03/27 08:04:48;;;;;;;24.97;12.47;;;;;;;21.33;23.56;97557.63;5086030;28;20444;-38
2022/03/27 08:07:15;;;;;;;30.63;14.00;;;;;;;21.45;23.22;97555.34;5091283;28;20432;-39
2022/03/27 08:09:43;;;;;;;25.13;13.33;;;;;;;21.15;22.96;97546.47;5091260;28;20423;-36
2022/03/27 08:12:11;;;;;;;21.40;11.67;;;;;;;21.21;23.41;97545.31;5091435;28;20447;-39
2022/03/27 08:14:43;;;;;;;23.23;12.23;;;;;;;21.12;22.38;97538.13;5093683;28;20801;-38
2022/03/27 08:17:11;;;;;;;32.87;14.03;;;;;;;21.26;23.28;97542.56;5094027;28;20431;-39
2022/03/27 08:19:38;;;;;;;21.53;12.50;;;;;;;21.52;23.04;97545.00;5092809;28;20478;-40
2022/03/27 08:22:06;;;;;;;28.30;15.07;;;;;;;21.65;22.74;97546.97;5093667;28;20968;-39
2022/03/27 08:24:33;;;;;;;28.70;13.67;;;;;;;21.68;22.75;97543.72;5093319;28;20471;-39
2022/03/27 08:27:00;;;;;;;29.27;14.97;;;;;;;21.82;22.07;97522.19;5094521;28;20476;-38
2022/03/27 08:29:30;;;;;;;32.57;14.33;;;;;;;21.82;22.48;97543.00;5098464;28;20495;-40
2022/03/27 08:32:00;;;;;;;26.73;12.40;;;;;;;21.70;22.42;97529.09;5093730;28;20449;-38
2022/03/27 08:34:29;;;;;;;23.07;11.80;;;;;;;21.94;22.08;97561.47;5093419;28;20964;-39
2022/03/27 08:36:57;;;;;;;31.10;13.17;;;;;;;21.60;21.84;97536.25;5090542;28;20539;-38
2022/03/27 08:39:24;;;;;;;31.20;14.40;;;;;;;21.78;22.64;97533.88;5093347;28;20484;-37
2022/03/27 08:41:54;;;;;;;26.83;12.20;;;;;;;22.03;22.59;97535.41;5093192;28;20490;-38
2022/03/27 08:44:23;;;;;;;26.90;13.80;;;;;;;21.90;21.00;97518.03;5093940;28;20458;-38
2022/03/27 08:46:52;;;;;;;25.37;13.30;;;;;;;21.64;21.45;97523.78;5093878;28;20447;-38
2022/03/27 08:49:34;;;;;;;26.17;11.70;;;;;;;21.69;21.64;97522.91;5093784;28;20530;-39
2022/03/27 08:52:10;;;;;;;20.33;11.50;;;;;;;21.56;21.75;97508.19;5093835;28;20435;-38
2022/03/27 08:54:44;;;;;;;26.97;14.20;;;;;;;21.73;22.20;97506.91;5093791;28;20797;-38
2022/03/27 08:57:24;;;;;;;23.60;15.43;;;;;;;21.81;22.63;97498.13;5094012;28;20431;-39
2022/03/27 08:59:53;;;;;;;28.63;13.47;;;;;;;22.09;22.35;97507.19;5089665;28;20474;-38
2022/03/27 09:02:23;;;;;;;22.23;11.43;;;;;;;22.07;21.65;97510.19;5094641;28;20475;-37
2022/03/27 09:04:54;;;;;;;16.83;10.27;;;;;;;21.98;21.94;97501.13;5095798;28;20443;-38
2022/03/27 09:07:24;;;;;;;27.10;11.37;;;;;;;22.09;22.33;97513.41;5093521;28;20518;-39
2022/03/27 09:09:51;;;;;;;25.97;11.93;;;;;;;22.18;22.88;97513.56;5093852;28;20447;-38
2022/03/27 09:12:20;;;;;;;23.90;11.90;;;;;;;22.16;22.10;97504.13;5093499;28;20439;-39
2022/03/27 09:14:48;;;;;;;24.50;12.63;;;;;;;22.26;22.17;97507.50;5093470;28;20443;-38
2022/03/27 09:17:16;;;;;;;26.60;14.40;;;;;;;22.16;21.87;97509.53;5093045;28;20893;-38
2022/03/27 09:19:48;;;;;;;23.30;12.97;;;;;;;22.46;22.49;97519.09;5093647;28;20462;-38
2022/03/27 09:22:18;;;;;;;22.67;13.70;;;;;;;22.66;22.47;97507.13;5093357;28;20442;-38
2022/03/27 09:24:48;;;;;;;18.60;11.57;;;;;;;22.81;21.02;97514.97;5093533;28;20481;-38
2022/03/27 09:27:15;;;;;;;27.37;12.73;;;;;;;22.65;21.54;97513.63;5093645;28;20524;-37
2022/03/27 09:29:58;;;;;;;23.00;14.30;;;;;;;22.66;22.30;97507.13;5093626;28;20450;-38
2022/03/27 09:32:32;;;;;;;21.27;13.50;;;;;;;22.68;21.56;97516.53;5096778;28;20443;-38
2022/03/27 09:35:02;;;;;;;32.50;15.00;;;;;;;22.77;21.35;97500.44;5097361;28;20474;-39
2022/03/27 09:37:32;;;;;;;34.30;15.63;;;;;;;22.64;21.76;97509.31;5097469;28;20442;-38
2022/03/27 09:39:59;;;;;;;30.80;15.60;;;;;;;22.57;22.12;97514.31;5097275;28;20442;-39
2022/03/27 09:42:27;;;;;;;23.27;14.77;;;;;;;22.32;21.48;97512.84;5097310;28;20454;-38
2022/03/27 09:45:14;;;;;;;38.87;17.30;;;;;;;22.42;22.17;97509.97;5097623;28;20530;-38
2022/03/27 09:47:42;;;;;;;22.70;14.40;;;;;;;22.54;21.60;97477.81;5104210;28;20473;-39
2022/03/27 09:50:28;;;;;;;30.73;13.50;;;;;;;22.81;21.44;97497.94;5097286;28;20435;-38
2022/03/27 09:53:25;;;;;;;34.67;18.20;;;;;;;22.77;21.48;97502.34;5097190;28;20427;-40
2022/03/27 09:56:13;;;;;;;24.93;13.40;;;;;;;22.60;20.85;97502.91;5097087;28;20471;-38
2022/03/27 09:58:43;;;;;;;28.90;14.20;;;;;;;22.16;21.62;97471.69;5097487;28;20434;-39
2022/03/27 10:01:12;;;;;;;31.20;17.33;;;;;;;22.32;21.88;97496.59;5101677;28;20906;-38
2022/03/27 10:03:58;;;;;;;22.53;13.30;;;;;;;22.44;21.78;97500.44;5117392;28;20782;-38
2022/03/27 10:06:31;;;;;;;25.47;12.13;;;;;;;22.32;22.41;97492.00;5117283;28;20434;-38
2022/03/27 10:09:01;;;;;;;29.10;13.77;;;;;;;22.42;21.26;97499.94;5117517;28;20937;-37
2022/03/27 10:11:29;;;;;;;30.60;14.10;;;;;;;22.35;20.88;97491.41;5091702;28;20446;-40
2022/03/27 10:13:57;;;;;;;39.20;14.47;;;;;;;22.43;21.86;97490.72;5083203;28;20448;-38
2022/03/27 10:16:26;;;;;;;24.37;11.63;;;;;;;22.54;20.88;97498.66;5077968;28;20813;-39
2022/03/27 10:19:00;;;;;;;36.83;11.83;;;;;;;22.48;21.59;97489.84;5076203;28;20554;-41
2022/03/27 10:21:28;;;;;;;27.00;14.07;;;;;;;22.62;21.84;97496.09;5075604;28;20472;-39
2022/03/27 10:24:06;;;;;;;30.07;14.83;;;;;;;22.60;21.74;97481.25;5075541;28;20432;-40
2022/03/27 10:26:34;;;;;;;30.30;12.80;;;;;;;22.59;21.68;97485.06;5075498;28;20439;-39
2022/03/27 10:29:02;;;;;;;24.93;12.10;;;;;;;22.57;21.86;97498.09;5075471;28;20852;-39
2022/03/27 10:31:30;;;;;;;22.10;10.10;;;;;;;22.46;21.94;97495.56;5075424;28;20440;-38
2022/03/27 10:34:00;;;;;;;18.40;10.53;;;;;;;22.49;21.30;97492.25;5075410;28;20448;-37
2022/03/27 10:36:37;;;;;;;20.03;12.80;;;;;;;22.12;22.22;97484.19;5080908;28;20801;-39
2022/03/27 10:39:13;;;;;;;21.30;11.47;;;;;;;22.32;22.05;97513.63;5096345;28;20427;-38
2022/03/27 10:41:48;;;;;;;28.50;12.77;;;;;;;22.23;22.40;97504.59;5095770;28;21060;-39
2022/03/27 10:44:26;;;;;;;23.07;11.60;;;;;;;22.32;22.80;97491.19;5095898;28;20427;-38
2022/03/27 10:47:17;;;;;;;18.70;9.87;;;;;;;22.03;22.34;97495.66;5099372;28;20813;-38
2022/03/27 10:50:24;;;;;;;22.73;11.10;;;;;;;22.11;23.02;97501.50;5105114;28;20446;-38
2022/03/27 10:53:07;;;;;;;19.00;11.87;;;;;;;22.22;23.73;97487.56;5101341;28;20994;-38
2022/03/27 10:55:43;;;;;;;26.87;15.47;;;;;;;22.33;23.51;97481.97;5105689;28;20447;-35
2022/03/27 10:58:43;;;;;;;22.70;11.87;;;;;;;22.47;23.73;97494.44;5095760;28;20515;-38
2022/03/27 11:01:37;;;;;;;25.37;11.13;;;;;;;22.36;23.34;97476.78;5094118;28;20821;-38
2022/03/27 11:04:09;;;;;;;21.00;12.00;;;;;;;22.21;24.23;97485.13;5093102;28;20435;-39
2022/03/27 11:06:38;;;;;;;25.07;13.50;;;;;;;22.30;24.35;97480.66;5095737;28;20481;-37
2022/03/27 11:09:07;;;;;;;27.10;16.00;;;;;;;22.19;23.55;97471.09;5095489;28;20439;-39
2022/03/27 11:11:54;;;;;;;29.60;10.93;;;;;;;22.38;23.88;97485.41;5095409;28;20439;-38
2022/03/27 11:14:58;;;;;;;31.23;10.90;;;;;;;22.47;24.00;97483.63;5096056;28;20435;-39
2022/03/27 11:17:49;;;;;;;20.33;11.57;;;;;;;22.55;24.60;97473.22;5095146;28;20455;-38
2022/03/27 11:20:59;;;;;;;14.23;8.50;;;;;;;22.42;24.18;97472.09;5095975;28;20949;-38
2022/03/27 11:23:31;;;;;;;35.23;13.23;;;;;;;22.28;23.77;97474.75;5095461;28;20449;-37
2022/03/27 11:26:00;;;;;;;15.00;10.17;;;;;;;22.19;24.28;97471.09;5095089;28;20555;-38
2022/03/27 11:28:45;;;;;;;21.70;11.33;;;;;;;22.21;24.75;97482.41;5095398;28;20443;-37
2022/03/27 11:31:27;;;;;;;25.50;10.50;;;;;;;22.14;24.16;97482.00;5092533;28;20438;-38
2022/03/27 11:34:20;;;;;;;18.30;10.90;;;;;;;22.23;24.01;97482.94;5073441;28;20451;-39
2022/03/27 11:37:10;;;;;;;19.73;11.47;;;;;;;22.37;24.63;97477.56;5074867;28;20435;-38
2022/03/27 11:39:38;;;;;;;23.00;12.40;;;;;;;22.31;23.97;97468.75;5075307;28;20428;-38
2022/03/27 11:42:24;;;;;;;15.57;9.00;;;;;;;22.27;23.82;97457.72;5074743;28;20570;-37
2022/03/27 11:45:12;;;;;;;20.30;10.30;;;;;;;22.23;24.43;97461.31;5075104;28;20440;-36
2022/03/27 11:47:41;;;;;;;20.30;11.77;;;;;;;22.20;24.04;97467.28;5077626;28;20482;-36